createdAt,value
2023-04-24T00:01:11.333Z,2.03
2023-04-24T00:03:40.159Z,2.10
2023-04-24T00:06:09.152Z,1.80
2023-04-24T00:08:37.193Z,1.70
2023-04-24T00:11:04.254Z,1.40
2023-04-24T00:13:31.174Z,1.70
2023-04-24T00:15:57.986Z,2.20
2023-04-24T00:18:24.857Z,2.37
2023-04-24T00:20:51.729Z,2.63
2023-04-24T00:23:18.701Z,2.33
2023-04-24T00:25:45.586Z,1.70
2023-04-24T00:28:12.457Z,1.90
2023-04-24T00:30:39.437Z,1.40
2023-04-24T00:33:06.396Z,1.90
2023-04-24T00:35:33.272Z,1.80
2023-04-24T00:38:00.170Z,1.70
2023-04-24T00:40:28.386Z,1.70
2023-04-24T00:42:55.217Z,1.53
2023-04-24T00:45:22.338Z,1.50
2023-04-24T00:47:50.430Z,1.77
2023-04-24T00:50:17.736Z,1.47
2023-04-24T00:52:45.259Z,1.40
2023-04-24T00:55:12.133Z,1.40
2023-04-24T00:57:39.458Z,1.97
2023-04-24T01:00:11.573Z,1.13
2023-04-24T01:02:41.494Z,1.17
2023-04-24T01:05:09.440Z,1.43
2023-04-24T01:07:37.094Z,1.80
2023-04-24T01:10:05.047Z,1.60
2023-04-24T01:12:31.936Z,1.73
2023-04-24T01:14:58.903Z,1.60
2023-04-24T01:17:26.179Z,1.70
2023-04-24T01:19:55.086Z,2.20
2023-04-24T01:22:21.930Z,2.10
2023-04-24T01:24:49.167Z,1.60
2023-04-24T01:27:16.495Z,1.60
2023-04-24T01:29:45.948Z,1.73
2023-04-24T01:32:13.147Z,1.80
2023-04-24T01:34:41.709Z,1.80
2023-04-24T01:37:08.675Z,1.50
2023-04-24T01:39:36.157Z,2.70
2023-04-24T01:42:06.411Z,3.13
2023-04-24T01:44:34.776Z,2.63
2023-04-24T01:47:02.462Z,2.50
2023-04-24T01:49:30.853Z,2.80
2023-04-24T01:51:57.728Z,2.30
2023-04-24T01:54:24.601Z,2.30
2023-04-24T01:56:51.646Z,2.20
2023-04-24T01:59:19.504Z,1.60
2023-04-24T02:01:46.462Z,2.30
2023-04-24T02:04:13.497Z,1.50
2023-04-24T02:06:40.466Z,1.30
2023-04-24T02:09:07.489Z,1.67
2023-04-24T02:11:35.239Z,1.73
2023-04-24T02:14:02.110Z,1.20
2023-04-24T02:16:33.289Z,2.10
2023-04-24T02:19:00.399Z,1.23
2023-04-24T02:21:28.450Z,1.30
2023-04-24T02:23:55.541Z,1.47
2023-04-24T02:26:22.435Z,1.13
2023-04-24T02:28:53.099Z,1.30
2023-04-24T02:31:21.347Z,1.50
2023-04-24T02:33:48.673Z,1.90
2023-04-24T02:36:15.626Z,1.70
2023-04-24T02:38:42.454Z,1.50
2023-04-24T02:41:09.295Z,1.30
2023-04-24T02:43:36.180Z,1.20
2023-04-24T02:46:03.879Z,1.23
2023-04-24T02:48:31.055Z,1.30
2023-04-24T02:50:58.656Z,1.80
2023-04-24T02:53:25.818Z,1.67
2023-04-24T02:55:52.982Z,1.30
2023-04-24T02:58:21.046Z,1.27
2023-04-24T03:00:48.513Z,1.40
2023-04-24T03:03:16.369Z,1.30
2023-04-24T03:05:43.598Z,1.10
2023-04-24T03:08:11.459Z,1.30
2023-04-24T03:10:38.391Z,1.30
2023-04-24T03:13:05.490Z,1.50
2023-04-24T03:15:32.706Z,1.50
2023-04-24T03:17:59.700Z,1.20
2023-04-24T03:20:26.884Z,1.17
2023-04-24T03:22:55.435Z,1.40
2023-04-24T03:25:22.450Z,1.57
2023-04-24T03:27:49.318Z,1.40
2023-04-24T03:30:48.749Z,1.30
2023-04-24T03:33:17.134Z,1.43
2023-04-24T03:35:54.596Z,1.53
2023-04-24T03:38:22.293Z,1.30
2023-04-24T03:40:56.684Z,1.57
2023-04-24T03:43:45.339Z,1.43
2023-04-24T03:46:12.380Z,1.60
2023-04-24T03:48:44.276Z,1.80
2023-04-24T03:51:11.951Z,1.50
2023-04-24T03:53:41.965Z,1.80
2023-04-24T03:56:10.550Z,1.50
2023-04-24T03:58:38.029Z,1.50
2023-04-24T04:01:06.592Z,1.40
2023-04-24T04:03:39.712Z,1.53
2023-04-24T04:06:07.446Z,1.40
2023-04-24T04:08:34.437Z,1.40
2023-04-24T04:11:02.891Z,1.50
2023-04-24T04:13:32.038Z,1.40
2023-04-24T04:15:59.056Z,1.37
2023-04-24T04:18:25.975Z,1.50
2023-04-24T04:20:53.009Z,1.50
2023-04-24T04:23:19.970Z,1.30
2023-04-24T04:26:04.819Z,1.37
2023-04-24T04:28:45.823Z,1.80
2023-04-24T04:31:13.937Z,2.43
2023-04-24T04:33:41.110Z,3.30
2023-04-24T04:36:09.788Z,3.00
2023-04-24T04:38:42.854Z,2.50
2023-04-24T04:41:21.413Z,2.50
2023-04-24T04:43:48.667Z,2.07
2023-04-24T04:46:17.026Z,1.93
2023-04-24T04:48:50.611Z,1.73
2023-04-24T04:51:17.699Z,1.70
2023-04-24T04:53:44.873Z,1.53
2023-04-24T04:56:12.352Z,1.50
2023-04-24T04:58:45.682Z,1.50
2023-04-24T05:01:15.844Z,1.57
2023-04-24T05:03:46.378Z,1.40
2023-04-24T05:06:16.736Z,1.40
2023-04-24T05:08:44.580Z,1.30
2023-04-24T05:11:31.722Z,1.37
2023-04-24T05:14:00.931Z,1.30
2023-04-24T05:16:39.121Z,1.30
2023-04-24T05:19:07.534Z,1.60
2023-04-24T05:21:40.319Z,1.90
2023-04-24T05:24:08.256Z,1.43
2023-04-24T05:27:03.247Z,1.57
2023-04-24T05:29:35.505Z,1.53
2023-04-24T05:32:04.266Z,1.60
2023-04-24T05:34:32.532Z,1.70
2023-04-24T05:36:59.547Z,1.90
2023-04-24T05:39:27.073Z,2.37
2023-04-24T05:41:55.018Z,2.53
2023-04-24T05:44:21.845Z,2.60
2023-04-24T05:46:49.099Z,2.23
2023-04-24T05:49:17.120Z,1.90
2023-04-24T05:51:46.122Z,1.57
2023-04-24T05:54:13.395Z,1.70
2023-04-24T05:56:43.178Z,1.63
2023-04-24T05:59:12.173Z,2.80
2023-04-24T06:01:39.147Z,3.23
2023-04-24T06:04:14.878Z,3.13
2023-04-24T06:06:42.222Z,2.33
2023-04-24T06:09:09.621Z,1.87
2023-04-24T06:11:36.551Z,2.20
2023-04-24T06:14:04.295Z,2.97
2023-04-24T06:16:51.755Z,2.43
2023-04-24T06:19:31.934Z,2.20
2023-04-24T06:21:58.854Z,2.33
2023-04-24T06:24:29.556Z,2.50
2023-04-24T06:26:57.720Z,2.70
2023-04-24T06:29:24.691Z,2.27
2023-04-24T06:31:51.598Z,2.10
2023-04-24T06:34:18.464Z,1.90
2023-04-24T06:36:45.891Z,1.87
2023-04-24T06:39:13.367Z,2.23
2023-04-24T06:41:41.010Z,2.30
2023-04-24T06:44:10.069Z,1.90
2023-04-24T06:46:37.485Z,2.30
2023-04-24T06:49:05.367Z,1.97
2023-04-24T06:51:33.974Z,2.40
2023-04-24T06:54:00.831Z,2.10
2023-04-24T06:56:27.731Z,2.33
2023-04-24T06:58:54.581Z,2.63
2023-04-24T07:01:21.680Z,2.70
2023-04-24T07:03:48.699Z,2.20
2023-04-24T07:06:17.555Z,2.20
2023-04-24T07:08:44.717Z,2.60
2023-04-24T07:11:11.572Z,2.50
2023-04-24T07:13:42.834Z,2.80
2023-04-24T07:16:10.802Z,2.37
2023-04-24T07:18:38.477Z,2.60
2023-04-24T07:21:05.614Z,2.90
2023-04-24T07:23:32.475Z,2.57
2023-04-24T07:25:59.375Z,2.50
2023-04-24T07:28:26.890Z,2.67
2023-04-24T07:30:55.159Z,2.90
2023-04-24T07:33:22.253Z,2.80
2023-04-24T07:35:49.455Z,2.30
2023-04-24T07:38:16.329Z,2.60
2023-04-24T07:40:46.820Z,2.60
2023-04-24T07:43:14.940Z,2.97
2023-04-24T07:45:42.054Z,2.87
2023-04-24T07:48:10.094Z,3.30
2023-04-24T07:50:37.767Z,3.40
2023-04-24T07:53:04.631Z,3.20
2023-04-24T07:55:31.454Z,3.30
2023-04-24T07:57:58.376Z,2.93
2023-04-24T08:00:25.218Z,3.20
2023-04-24T08:02:52.244Z,3.23
2023-04-24T08:05:19.399Z,3.10
2023-04-24T08:07:49.632Z,3.20
2023-04-24T08:10:16.633Z,3.20
2023-04-24T08:12:43.468Z,3.37
2023-04-24T08:15:10.700Z,3.60
2023-04-24T08:17:37.788Z,3.10
2023-04-24T08:20:06.351Z,3.60
2023-04-24T08:22:33.495Z,2.93
2023-04-24T08:25:01.688Z,2.97
2023-04-24T08:27:28.760Z,2.80
2023-04-24T08:29:56.156Z,2.80
2023-04-24T08:32:22.976Z,3.40
2023-04-24T08:34:50.131Z,3.00
2023-04-24T08:37:17.068Z,3.37
2023-04-24T08:39:44.199Z,4.43
2023-04-24T08:42:13.984Z,7.93
2023-04-24T08:44:41.039Z,7.53
2023-04-24T08:47:09.192Z,7.83
2023-04-24T08:49:37.689Z,7.67
2023-04-24T08:52:05.682Z,8.40
2023-04-24T08:54:34.950Z,4.17
2023-04-24T08:57:04.647Z,3.50
2023-04-24T08:59:32.666Z,3.90
2023-04-24T09:02:02.681Z,3.33
2023-04-24T09:04:31.338Z,3.10
2023-04-24T09:06:59.525Z,2.57
2023-04-24T09:09:27.237Z,3.07
2023-04-24T09:11:58.229Z,3.13
2023-04-24T09:14:25.344Z,2.93
2023-04-24T09:16:52.299Z,3.90
2023-04-24T09:19:19.281Z,4.10
2023-04-24T09:21:49.422Z,4.07
2023-04-24T09:24:23.464Z,4.03
2023-04-24T09:26:58.617Z,3.80
2023-04-24T09:29:25.798Z,3.30
2023-04-24T09:31:52.770Z,3.20
2023-04-24T09:34:28.293Z,3.00
2023-04-24T09:36:55.873Z,3.13
2023-04-24T09:39:22.770Z,2.53
2023-04-24T09:41:51.136Z,3.30
2023-04-24T09:44:21.986Z,2.87
2023-04-24T09:46:57.274Z,3.07
2023-04-24T09:49:25.660Z,3.30
2023-04-24T09:51:53.164Z,3.40
2023-04-24T09:54:22.485Z,3.30
2023-04-24T09:56:51.471Z,2.97
2023-04-24T09:59:20.592Z,2.60
2023-04-24T10:01:49.750Z,2.60
2023-04-24T10:04:22.078Z,2.90
2023-04-24T10:06:50.463Z,2.67
2023-04-24T10:09:19.223Z,2.50
2023-04-24T10:11:48.288Z,2.43
2023-04-24T10:14:17.559Z,2.50
2023-04-24T10:16:45.597Z,2.77
2023-04-24T10:19:14.156Z,2.40
2023-04-24T10:21:48.005Z,2.20
2023-04-24T10:24:22.082Z,2.53
2023-04-24T10:26:49.534Z,2.30
2023-04-24T10:29:19.921Z,2.40
2023-04-24T10:31:47.883Z,2.47
2023-04-24T10:34:18.544Z,2.47
2023-04-24T10:37:04.475Z,2.37
2023-04-24T10:39:34.504Z,2.47
2023-04-24T10:42:02.100Z,2.60
2023-04-24T10:44:37.577Z,2.40
2023-04-24T10:47:04.660Z,2.40
2023-04-24T10:49:32.786Z,2.43
2023-04-24T10:52:06.778Z,2.63
2023-04-24T10:54:47.433Z,2.87
2023-04-24T10:57:23.603Z,3.10
2023-04-24T10:59:52.545Z,2.90
2023-04-24T11:02:36.592Z,2.80
2023-04-24T11:05:07.343Z,2.60
2023-04-24T11:08:12.936Z,2.77
2023-04-24T11:10:47.610Z,2.57
2023-04-24T11:13:18.411Z,2.30
2023-04-24T11:15:45.446Z,2.60
2023-04-24T11:18:16.969Z,2.20
2023-04-24T11:20:45.592Z,2.20
2023-04-24T11:23:14.099Z,2.17
2023-04-24T11:25:42.691Z,2.40
2023-04-24T11:28:17.309Z,3.10
2023-04-24T11:30:44.180Z,2.47
2023-04-24T11:33:11.106Z,2.70
2023-04-24T11:35:41.560Z,2.80
2023-04-24T11:38:23.207Z,2.77
2023-04-24T11:40:51.860Z,2.80
2023-04-24T11:43:20.354Z,2.60
2023-04-24T11:45:50.885Z,2.30
2023-04-24T11:48:23.373Z,2.07
2023-04-24T11:50:51.497Z,2.20
2023-04-24T11:53:22.505Z,2.37
2023-04-24T11:55:49.325Z,2.10
2023-04-24T11:58:16.284Z,1.90
2023-04-24T12:00:43.166Z,2.10
2023-04-24T12:03:12.592Z,2.17
2023-04-24T12:05:41.086Z,2.00
2023-04-24T12:08:08.194Z,1.93
2023-04-24T12:10:36.019Z,2.20
2023-04-24T12:13:03.249Z,2.23
2023-04-24T12:15:30.452Z,2.23
2023-04-24T12:17:57.950Z,2.40
2023-04-24T12:20:30.472Z,2.03
2023-04-24T12:22:59.228Z,2.27
2023-04-24T12:25:31.159Z,2.40
2023-04-24T12:28:04.191Z,2.30
2023-04-24T12:30:33.131Z,2.27
2023-04-24T12:33:01.436Z,2.70
2023-04-24T12:35:30.003Z,2.60
2023-04-24T12:37:56.912Z,2.40
2023-04-24T12:40:26.695Z,2.47
2023-04-24T12:42:54.114Z,2.13
2023-04-24T12:45:24.396Z,2.10
2023-04-24T12:47:51.486Z,2.50
2023-04-24T12:50:18.982Z,2.70
2023-04-24T12:52:46.360Z,2.83
2023-04-24T12:55:13.515Z,2.50
2023-04-24T12:57:41.406Z,2.60
2023-04-24T13:00:09.550Z,2.60
2023-04-24T13:02:36.678Z,2.67
2023-04-24T13:05:03.857Z,2.77
2023-04-24T13:07:30.920Z,2.60
2023-04-24T13:09:58.744Z,2.43
2023-04-24T13:12:26.610Z,2.50
2023-04-24T13:14:54.211Z,3.40
2023-04-24T13:17:21.527Z,3.00
2023-04-24T13:19:52.442Z,3.20
2023-04-24T13:22:22.451Z,3.00
2023-04-24T13:24:52.078Z,2.70
2023-04-24T13:27:19.503Z,3.13
2023-04-24T13:29:46.803Z,3.47
2023-04-24T13:32:13.923Z,3.17
2023-04-24T13:34:41.094Z,3.03
2023-04-24T13:37:09.079Z,2.60
2023-04-24T13:39:36.419Z,2.93
2023-04-24T13:42:05.148Z,2.40
2023-04-24T13:44:32.521Z,2.57
2023-04-24T13:46:59.822Z,2.47
2023-04-24T13:49:27.284Z,2.40
2023-04-24T13:51:56.083Z,2.53
2023-04-24T13:54:24.442Z,2.80
2023-04-24T13:56:52.829Z,3.80
2023-04-24T13:59:21.600Z,4.23
2023-04-24T14:01:49.127Z,3.70
2023-04-24T14:04:16.463Z,3.27
2023-04-24T14:06:44.233Z,3.57
2023-04-24T14:09:11.159Z,3.63
2023-04-24T14:11:38.034Z,3.30
2023-04-24T14:14:05.418Z,4.17
2023-04-24T14:16:32.663Z,3.47
2023-04-24T14:18:59.775Z,3.77
2023-04-24T14:21:26.681Z,3.93
2023-04-24T14:23:53.569Z,4.40
2023-04-24T14:26:21.037Z,3.93
2023-04-24T14:28:47.878Z,4.20
2023-04-24T14:31:14.826Z,3.50
2023-04-24T14:33:41.752Z,3.53
2023-04-24T14:36:08.755Z,3.20
2023-04-24T14:38:35.945Z,3.53
2023-04-24T14:41:10.589Z,3.40
2023-04-24T14:43:40.048Z,3.30
2023-04-24T14:46:06.974Z,3.87
2023-04-24T14:48:33.923Z,3.70
2023-04-24T14:51:00.769Z,2.70
2023-04-24T14:53:27.703Z,2.70
2023-04-24T14:55:55.178Z,2.47
2023-04-24T14:58:22.503Z,2.20
2023-04-24T15:00:52.887Z,2.27
2023-04-24T15:03:22.364Z,2.40
2023-04-24T15:05:49.506Z,2.40
2023-04-24T15:08:16.341Z,2.30
2023-04-24T15:10:43.654Z,2.60
2023-04-24T15:13:10.629Z,2.40
2023-04-24T15:15:38.097Z,2.87
2023-04-24T15:18:06.513Z,2.40
2023-04-24T15:20:33.430Z,2.50
2023-04-24T15:23:01.458Z,2.10
2023-04-24T15:25:29.709Z,2.37
2023-04-24T15:27:56.601Z,2.33
2023-04-24T15:30:23.520Z,2.33
2023-04-24T15:32:50.449Z,3.00
2023-04-24T15:35:17.675Z,3.30
2023-04-24T15:37:44.868Z,3.80
2023-04-24T15:40:14.256Z,3.60
2023-04-24T15:42:41.877Z,3.00
2023-04-24T15:45:09.668Z,3.70
2023-04-24T15:47:36.673Z,3.60
2023-04-24T15:50:04.737Z,3.70
2023-04-24T15:52:31.676Z,3.40
2023-04-24T15:54:58.532Z,3.63
2023-04-24T15:57:25.772Z,3.43
2023-04-24T15:59:53.192Z,3.30
2023-04-24T16:02:20.990Z,3.40
2023-04-24T16:04:49.740Z,2.93
2023-04-24T16:07:20.881Z,3.10
2023-04-24T16:09:47.928Z,3.20
2023-04-24T16:12:14.976Z,3.27
2023-04-24T16:14:42.434Z,3.30
2023-04-24T16:17:09.513Z,3.60
2023-04-24T16:19:36.511Z,3.13
2023-04-24T16:22:04.345Z,3.37
2023-04-24T16:24:31.370Z,3.20
2023-04-24T16:26:58.333Z,2.80
2023-04-24T16:29:25.270Z,3.00
2023-04-24T16:31:52.519Z,3.30
2023-04-24T16:34:19.615Z,2.87
2023-04-24T16:36:46.866Z,3.10
2023-04-24T16:39:13.924Z,2.70
2023-04-24T16:41:40.934Z,2.90
2023-04-24T16:44:07.943Z,2.70
2023-04-24T16:46:35.010Z,2.43
2023-04-24T16:49:01.977Z,2.73
2023-04-24T16:51:29.109Z,3.00
2023-04-24T16:53:56.196Z,3.20
2023-04-24T16:56:23.413Z,2.60
2023-04-24T16:58:51.076Z,2.87
2023-04-24T17:01:18.258Z,3.13
2023-04-24T17:03:45.410Z,2.80
2023-04-24T17:06:12.784Z,3.10
2023-04-24T17:08:39.819Z,2.90
2023-04-24T17:11:06.719Z,2.67
2023-04-24T17:13:33.755Z,3.07
2023-04-24T17:16:00.785Z,2.53
2023-04-24T17:18:27.701Z,2.60
2023-04-24T17:20:54.551Z,2.73
2023-04-24T17:23:21.707Z,2.83
2023-04-24T17:25:49.088Z,3.00
2023-04-24T17:28:34.452Z,2.90
2023-04-24T17:31:01.414Z,3.00
2023-04-24T17:33:30.623Z,3.57
2023-04-24T17:35:58.540Z,3.53
2023-04-24T17:38:25.703Z,3.50
2023-04-24T17:40:53.128Z,2.90
2023-04-24T17:43:24.191Z,3.20
2023-04-24T17:45:52.771Z,3.03
2023-04-24T17:48:19.945Z,3.10
2023-04-24T17:50:46.814Z,2.80
2023-04-24T17:53:13.790Z,3.17
2023-04-24T17:55:42.061Z,3.20
2023-04-24T17:58:09.127Z,3.30
2023-04-24T18:00:36.307Z,3.23
2023-04-24T18:03:04.222Z,3.23
2023-04-24T18:05:32.312Z,2.93
2023-04-24T18:07:59.870Z,2.97
2023-04-24T18:10:28.299Z,2.60
2023-04-24T18:12:55.541Z,2.90
2023-04-24T18:15:22.719Z,2.90
2023-04-24T18:17:49.628Z,2.90
2023-04-24T18:20:18.624Z,3.10
2023-04-24T18:22:46.293Z,2.50
2023-04-24T18:25:14.373Z,2.73
2023-04-24T18:27:41.948Z,2.83
2023-04-24T18:30:14.233Z,2.53
2023-04-24T18:32:41.802Z,2.53
2023-04-24T18:35:09.191Z,3.13
2023-04-24T18:37:36.055Z,3.03
2023-04-24T18:40:03.669Z,3.00
2023-04-24T18:42:30.664Z,3.30
2023-04-24T18:45:01.610Z,3.20
2023-04-24T18:47:29.234Z,3.23
2023-04-24T18:49:56.359Z,3.47
2023-04-24T18:52:24.175Z,3.40
2023-04-24T18:54:51.377Z,3.40
2023-04-24T18:57:18.246Z,3.40
2023-04-24T18:59:45.292Z,3.50
2023-04-24T19:02:12.387Z,3.50
2023-04-24T19:04:39.505Z,3.53
2023-04-24T19:07:06.451Z,3.20
2023-04-24T19:09:33.335Z,3.13
2023-04-24T19:12:01.757Z,3.67
2023-04-24T19:14:28.981Z,3.77
2023-04-24T19:16:55.940Z,3.87
2023-04-24T19:19:23.850Z,3.67
2023-04-24T19:21:50.822Z,3.50
2023-04-24T19:24:21.354Z,3.90
2023-04-24T19:26:48.241Z,3.50
2023-04-24T19:29:15.093Z,3.50
2023-04-24T19:31:42.114Z,3.80
2023-04-24T19:34:09.052Z,3.70
2023-04-24T19:36:36.479Z,4.10
2023-04-24T19:39:04.024Z,3.80
2023-04-24T19:41:30.907Z,3.90
2023-04-24T19:43:57.858Z,4.13
2023-04-24T19:46:25.006Z,4.70
2023-04-24T19:48:52.237Z,4.27
2023-04-24T19:51:19.255Z,4.37
2023-04-24T19:53:46.105Z,3.90
2023-04-24T19:56:13.043Z,3.53
2023-04-24T19:58:39.936Z,3.87
2023-04-24T20:01:06.849Z,3.70
2023-04-24T20:03:34.711Z,3.97
2023-04-24T20:06:02.006Z,3.70
2023-04-24T20:08:29.032Z,3.20
2023-04-24T20:10:58.013Z,3.30
2023-04-24T20:13:27.595Z,3.00
2023-04-24T20:15:54.854Z,3.20
2023-04-24T20:18:21.818Z,3.30
2023-04-24T20:20:48.862Z,4.17
2023-04-24T20:23:15.855Z,3.07
2023-04-24T20:25:42.719Z,3.40
2023-04-24T20:28:09.611Z,3.47
2023-04-24T20:30:38.033Z,4.03
2023-04-24T20:33:05.079Z,4.40
2023-04-24T20:35:32.052Z,4.60
2023-04-24T20:37:59.590Z,4.90
2023-04-24T20:40:28.020Z,5.43
2023-04-24T20:42:55.800Z,5.70
2023-04-24T20:45:24.141Z,6.23
2023-04-24T20:47:51.332Z,4.73
2023-04-24T20:50:18.896Z,5.10
2023-04-24T20:52:45.889Z,5.10
2023-04-24T20:55:12.976Z,4.27
2023-04-24T20:57:40.124Z,3.97
2023-04-24T21:00:08.842Z,4.20
2023-04-24T21:02:35.894Z,4.80
2023-04-24T21:05:04.364Z,4.80
2023-04-24T21:07:31.393Z,4.50
2023-04-24T21:09:58.323Z,4.63
2023-04-24T21:12:25.209Z,4.30
2023-04-24T21:14:52.117Z,3.87
2023-04-24T21:17:19.285Z,3.93
2023-04-24T21:19:46.210Z,4.80
2023-04-24T21:22:13.048Z,5.33
2023-04-24T21:24:39.938Z,5.60
2023-04-24T21:27:07.533Z,5.20
2023-04-24T21:29:35.848Z,4.97
2023-04-24T21:32:03.556Z,4.50
2023-04-24T21:34:30.714Z,4.47
2023-04-24T21:36:57.566Z,5.33
2023-04-24T21:39:24.736Z,6.60
2023-04-24T21:41:52.194Z,6.53
2023-04-24T21:44:19.057Z,6.20
2023-04-24T21:46:46.570Z,5.00
2023-04-24T21:49:13.400Z,5.03
2023-04-24T21:51:40.265Z,5.50
2023-04-24T21:54:07.107Z,4.10
2023-04-24T21:56:34.159Z,4.57
2023-04-24T21:59:01.417Z,4.40
2023-04-24T22:01:28.332Z,5.03
2023-04-24T22:03:55.641Z,4.73
2023-04-24T22:06:22.960Z,4.90
2023-04-24T22:08:49.890Z,4.70
2023-04-24T22:11:26.636Z,4.50
2023-04-24T22:13:54.935Z,5.03
2023-04-24T22:16:24.229Z,4.80
2023-04-24T22:18:55.347Z,4.50
2023-04-24T22:21:22.812Z,4.27
2023-04-24T22:23:50.261Z,4.43
2023-04-24T22:26:17.478Z,4.00
2023-04-24T22:28:45.194Z,4.40
2023-04-24T22:31:13.442Z,3.60
2023-04-24T22:33:40.754Z,3.80
2023-04-24T22:36:07.895Z,3.97
2023-04-24T22:38:34.754Z,3.20
2023-04-24T22:41:02.239Z,3.70
2023-04-24T22:43:30.037Z,3.40
2023-04-24T22:45:56.989Z,3.73
2023-04-24T22:48:24.522Z,3.27
2023-04-24T22:50:52.410Z,3.80
2023-04-24T22:53:19.769Z,3.50
2023-04-24T22:55:46.874Z,3.30
2023-04-24T22:58:13.786Z,3.30
2023-04-24T23:00:40.798Z,3.30
2023-04-24T23:03:07.889Z,3.17
2023-04-24T23:05:34.940Z,3.00
2023-04-24T23:08:01.786Z,3.30
2023-04-24T23:10:28.870Z,3.17
2023-04-24T23:12:56.073Z,3.73
2023-04-24T23:15:22.947Z,3.53
2023-04-24T23:17:49.849Z,3.83
2023-04-24T23:20:16.963Z,3.43
2023-04-24T23:22:43.984Z,3.30
2023-04-24T23:25:11.101Z,2.90
2023-04-24T23:27:38.127Z,3.70
2023-04-24T23:30:06.905Z,3.20
2023-04-24T23:32:34.077Z,3.03
2023-04-24T23:35:00.955Z,3.20
2023-04-24T23:37:27.940Z,3.00
2023-04-24T23:39:54.812Z,2.97
2023-04-24T23:42:21.644Z,3.27
2023-04-24T23:44:48.455Z,3.73
2023-04-24T23:47:15.359Z,3.20
2023-04-24T23:49:42.175Z,3.60
2023-04-24T23:52:09.044Z,4.73
2023-04-24T23:54:35.936Z,4.23
2023-04-24T23:57:03.586Z,4.40
2023-04-24T23:59:30.836Z,3.70
